Aeroporto :
LOGIN :

Iscrizione | Disclaimer

   EN    FR    IT 

 










Sommario :    VFR   VFR Marginale   IFR   IFR Intensivo   IFR Molto Intensivo
Visibilità : 
Base nubi : 
>= 8 km
>= 3000ft
5 / 8 km
1000 / 3000 ft
1500m / 5 km
500 / 1000 ft
800 / 1500m
200 / 500 ft
< 800m
< 200 ft
Simboli :   Temporali  Nebbia  Neve Forte  Precipitazioni Forti  Vento > 20 kt
SIGMETs :   Varie  Temporali  Ghiacco  Turbolenza  Onda orograficha  Ceneri Vulcaniche






- Altitudine del aeroporto : 622 ft
- Codice IATA : SVO


UUEE - Sheremetyevo International

ULTIMO METAR :
  • 310100Z 03009MPS 9999 -RA OVC011 12/11 Q1010 R06R/290245 NOSIG

METARs OBSOLETI :
  • 310030Z 04008MPS 9999 -RA OVC011 12/11 Q1010 R06R/290245 NOSIG
  • 310000Z 03008MPS 9999 OVC010 12/11 Q1010 R06R/290245 NOSIG
  • 302330Z 03008MPS 9999 -RA OVC019 13/11 Q1010 R06R/290245 NOSIG
  • 302300Z 02008MPS 9999 -SHRA SCT010 BKN018CB 13/12 Q1010 R06R/290245 NOSIG
  • 302230Z 02006MPS 9999 -SHRA SCT009 BKN019CB 13/12 Q1010 R06R/290245 NOSIG

TAF TAF UUEE
Valido dal 31 a 00 ore il 01 a 00 ore UTC


302259Z 3100/3124 03007MPS 6000 -RA FEW007 OVC016 TX14/3112Z TN08/3124Z
TEMPO 3100/3106 05008G14MPS 2500 -SHRA BKN004 BKN011CB
TEMPO 3106/3112 05010G15MPS -SHRA FEW004 BKN011CB



MetMap, La meteo Aeronautica in un colpo d'occhio ! - Copyright ORBIFLY Dicembre 2007 - Disclaimer

ORBIFLY MET'MAP TEAM :

Programmazione e sviluppo : Alexandra Zaïnal
Concezione : Baudouin d'Aumeries
Aiuto per la programmazione : Marc-Olivier Méhu
Supporto tecnico e logistico : Manuel Goepfert
Aiuto per la traduzione : Arnaldo La Scala

Contatto : metmap@orbifly.com




FONTI E CREDITI :

   NOAA